createdAt,value
2023-01-15T00:01:44.964Z,72.76
2023-01-15T00:04:11.798Z,72.73
2023-01-15T00:06:39.119Z,73.17
2023-01-15T00:09:06.041Z,73.29
2023-01-15T00:11:32.575Z,73.12
2023-01-15T00:13:59.137Z,73.12
2023-01-15T00:16:26.287Z,73.54
2023-01-15T00:18:53.955Z,74.12
2023-01-15T00:21:21.812Z,74.94
2023-01-15T00:24:07.193Z,75.13
2023-01-15T00:26:52.959Z,74.73
2023-01-15T00:29:19.900Z,74.40
2023-01-15T00:31:59.682Z,74.60
2023-01-15T00:34:26.569Z,75.21
2023-01-15T00:36:53.226Z,74.82
2023-01-15T00:39:19.777Z,74.51
2023-01-15T00:41:46.663Z,74.20
2023-01-15T00:44:13.169Z,74.20
2023-01-15T00:46:39.768Z,73.92
2023-01-15T00:49:06.368Z,74.05
2023-01-15T00:51:32.943Z,74.01
2023-01-15T00:53:59.565Z,73.41
2023-01-15T00:56:26.136Z,73.26
2023-01-15T00:58:52.819Z,73.58
2023-01-15T01:01:19.718Z,73.13
2023-01-15T01:03:52.638Z,73.25
2023-01-15T01:06:20.005Z,73.69
2023-01-15T01:08:46.806Z,73.36
2023-01-15T01:11:14.468Z,73.17
2023-01-15T01:13:41.345Z,72.86
2023-01-15T01:16:23.748Z,72.23
2023-01-15T01:18:50.420Z,72.08
2023-01-15T01:21:17.230Z,71.21
2023-01-15T01:23:44.472Z,72.27
2023-01-15T01:26:11.512Z,71.80
2023-01-15T01:28:38.131Z,70.87
2023-01-15T01:31:07.213Z,71.93
2023-01-15T01:33:33.752Z,71.66
2023-01-15T01:36:00.251Z,71.29
2023-01-15T01:38:26.748Z,71.21
2023-01-15T01:40:53.510Z,70.35
2023-01-15T01:43:21.598Z,71.01
2023-01-15T01:45:48.426Z,71.41
2023-01-15T01:48:14.954Z,71.08
2023-01-15T01:50:41.461Z,71.63
2023-01-15T01:53:13.187Z,71.54
2023-01-15T01:55:40.672Z,71.36
2023-01-15T01:58:09.847Z,71.19
2023-01-15T02:00:38.728Z,72.09
2023-01-15T02:03:05.896Z,72.01
2023-01-15T02:05:33.777Z,71.28
2023-01-15T02:08:00.541Z,72.19
2023-01-15T02:10:28.248Z,71.80
2023-01-15T02:13:03.634Z,72.41
2023-01-15T02:15:33.144Z,72.59
2023-01-15T02:18:18.532Z,72.39
2023-01-15T02:20:48.797Z,72.26
2023-01-15T02:23:22.035Z,72.70
2023-01-15T02:25:54.750Z,72.77
2023-01-15T02:28:21.480Z,73.00
2023-01-15T02:30:49.404Z,72.92
2023-01-15T02:33:36.377Z,73.09
2023-01-15T02:36:06.725Z,73.41
2023-01-15T02:38:43.399Z,73.06
2023-01-15T02:41:16.688Z,72.78
2023-01-15T02:43:51.629Z,73.01
2023-01-15T02:46:18.701Z,73.32
2023-01-15T02:48:48.058Z,73.53
2023-01-15T02:51:15.459Z,73.18
2023-01-15T02:53:44.614Z,73.62
2023-01-15T02:56:13.871Z,73.61
2023-01-15T02:58:45.876Z,73.88
2023-01-15T03:01:27.395Z,74.33
2023-01-15T03:03:59.815Z,74.61
2023-01-15T03:06:26.313Z,74.43
2023-01-15T03:08:53.795Z,74.60
2023-01-15T03:11:21.054Z,74.67
2023-01-15T03:14:02.764Z,74.55
2023-01-15T03:16:35.757Z,75.24
2023-01-15T03:19:18.744Z,75.39
2023-01-15T03:21:49.794Z,75.46
2023-01-15T03:24:22.008Z,75.08
2023-01-15T03:26:48.599Z,75.39
2023-01-15T03:29:15.120Z,75.47
2023-01-15T03:31:41.919Z,75.27
2023-01-15T03:34:08.530Z,75.27
2023-01-15T03:36:35.882Z,75.44
2023-01-15T03:39:02.457Z,75.28
2023-01-15T03:42:11.788Z,74.72
2023-01-15T03:44:45.518Z,74.42
2023-01-15T03:47:24.551Z,73.95
2023-01-15T03:49:59.693Z,74.55
2023-01-15T03:52:37.079Z,74.42
2023-01-15T03:55:06.488Z,74.26
2023-01-15T03:57:37.563Z,74.04
2023-01-15T04:00:08.030Z,74.05
2023-01-15T04:02:41.982Z,74.04
2023-01-15T04:05:09.100Z,73.44
2023-01-15T04:07:35.681Z,73.56
2023-01-15T04:10:02.233Z,74.04
2023-01-15T04:12:29.040Z,73.40
2023-01-15T04:14:57.947Z,73.23
2023-01-15T04:17:24.914Z,73.11
2023-01-15T04:19:51.535Z,73.91
2023-01-15T04:22:18.191Z,73.57
2023-01-15T04:24:45.751Z,74.13
2023-01-15T04:27:12.247Z,74.37
2023-01-15T04:29:38.775Z,73.72
2023-01-15T04:32:05.298Z,74.26
2023-01-15T04:34:31.811Z,74.01
2023-01-15T04:36:58.349Z,74.00
2023-01-15T04:39:24.900Z,74.32
2023-01-15T04:42:10.134Z,74.14
2023-01-15T04:44:37.146Z,73.57
2023-01-15T04:47:03.692Z,74.39
2023-01-15T04:49:30.410Z,74.46
2023-01-15T04:51:57.076Z,74.08
2023-01-15T04:54:23.655Z,74.03
2023-01-15T04:56:51.035Z,74.30
2023-01-15T04:59:19.438Z,74.63
2023-01-15T05:02:01.942Z,75.66
2023-01-15T05:04:30.139Z,74.46
2023-01-15T05:06:56.775Z,75.10
2023-01-15T05:09:23.306Z,74.42
2023-01-15T05:11:49.805Z,74.72
2023-01-15T05:14:16.878Z,74.76
2023-01-15T05:16:43.413Z,74.62
2023-01-15T05:19:10.533Z,75.86
2023-01-15T05:21:37.833Z,78.68
2023-01-15T05:24:05.267Z,80.80
2023-01-15T05:26:32.047Z,82.55
2023-01-15T05:28:59.630Z,83.03
2023-01-15T05:31:26.530Z,83.53
2023-01-15T05:33:53.404Z,83.39
2023-01-15T05:36:21.268Z,84.13
2023-01-15T05:38:47.862Z,84.48
2023-01-15T05:41:34.352Z,83.90
2023-01-15T05:44:01.972Z,84.08
2023-01-15T05:46:28.608Z,83.57
2023-01-15T05:48:55.186Z,84.06
2023-01-15T05:51:21.723Z,83.74
2023-01-15T05:53:49.180Z,83.30
2023-01-15T05:56:15.699Z,83.70
2023-01-15T05:58:45.525Z,84.34
2023-01-15T06:01:12.120Z,83.18
2023-01-15T06:03:38.695Z,83.67
2023-01-15T06:06:05.336Z,82.72
2023-01-15T06:08:31.851Z,83.36
2023-01-15T06:10:58.403Z,83.48
2023-01-15T06:13:24.897Z,83.44
2023-01-15T06:15:51.505Z,83.25
2023-01-15T06:18:18.088Z,83.30
2023-01-15T06:20:44.626Z,83.61
2023-01-15T06:23:11.136Z,83.01
2023-01-15T06:25:37.701Z,82.87
2023-01-15T06:28:04.691Z,82.45
2023-01-15T06:30:31.283Z,82.47
2023-01-15T06:32:58.150Z,82.57
2023-01-15T06:35:24.781Z,83.06
2023-01-15T06:37:51.316Z,82.32
2023-01-15T06:40:18.198Z,82.88
2023-01-15T06:43:03.331Z,82.25
2023-01-15T06:45:56.243Z,82.13
2023-01-15T06:48:23.126Z,81.35
2023-01-15T06:50:49.645Z,81.80
2023-01-15T06:53:16.214Z,81.97
2023-01-15T06:55:43.140Z,82.20
2023-01-15T06:58:10.360Z,82.93
2023-01-15T07:00:36.984Z,82.95
2023-01-15T07:03:04.042Z,82.45
2023-01-15T07:05:31.305Z,82.97
2023-01-15T07:07:58.215Z,82.67
2023-01-15T07:10:24.814Z,82.99
2023-01-15T07:12:51.392Z,82.65
2023-01-15T07:15:21.337Z,82.94
2023-01-15T07:17:48.155Z,82.86
2023-01-15T07:20:14.740Z,82.74
2023-01-15T07:22:41.226Z,82.91
2023-01-15T07:25:08.184Z,82.55
2023-01-15T07:27:34.967Z,82.17
2023-01-15T07:30:04.654Z,82.48
2023-01-15T07:32:33.210Z,82.17
2023-01-15T07:34:59.749Z,81.76
2023-01-15T07:37:28.532Z,82.08
2023-01-15T07:39:57.739Z,81.92
2023-01-15T07:42:42.846Z,82.48
2023-01-15T07:45:28.267Z,82.00
2023-01-15T07:48:13.919Z,81.60
2023-01-15T07:50:40.414Z,81.50
2023-01-15T07:53:09.160Z,81.68
2023-01-15T07:55:35.842Z,81.04
2023-01-15T07:58:02.998Z,81.42
2023-01-15T08:00:30.233Z,82.22
2023-01-15T08:02:56.771Z,82.39
2023-01-15T08:05:23.396Z,81.14
2023-01-15T08:07:50.615Z,82.05
2023-01-15T08:10:17.300Z,81.72
2023-01-15T08:13:02.653Z,81.63
2023-01-15T08:15:32.319Z,81.62
2023-01-15T08:18:07.249Z,81.41
2023-01-15T08:20:36.543Z,81.69
2023-01-15T08:23:03.240Z,81.83
2023-01-15T08:25:29.821Z,81.20
2023-01-15T08:27:56.608Z,82.67
2023-01-15T08:30:24.550Z,82.09
2023-01-15T08:32:51.075Z,82.51
2023-01-15T08:35:17.651Z,82.22
2023-01-15T08:37:44.251Z,82.20
2023-01-15T08:40:11.723Z,82.04
2023-01-15T08:42:38.678Z,81.97
2023-01-15T08:45:05.355Z,81.50
2023-01-15T08:47:32.601Z,82.04
2023-01-15T08:49:59.360Z,81.72
2023-01-15T08:52:25.858Z,81.74
2023-01-15T08:54:52.407Z,81.75
2023-01-15T08:57:18.928Z,81.80
2023-01-15T08:59:47.061Z,81.85
2023-01-15T09:02:17.859Z,81.42
2023-01-15T09:04:44.454Z,82.13
2023-01-15T09:07:11.306Z,81.88
2023-01-15T09:09:37.879Z,81.52
2023-01-15T09:12:04.743Z,82.08
2023-01-15T09:14:58.143Z,82.46
2023-01-15T09:17:17.780Z,82.69
2023-01-15T09:19:44.309Z,81.74
2023-01-15T09:22:10.810Z,81.67
2023-01-15T09:24:37.574Z,81.32
2023-01-15T09:27:04.153Z,81.55
2023-01-15T09:29:30.700Z,81.81
2023-01-15T09:31:57.232Z,81.90
2023-01-15T09:34:23.847Z,82.47
2023-01-15T09:36:51.349Z,81.89
2023-01-15T09:39:17.948Z,82.07
2023-01-15T09:42:07.953Z,82.16
2023-01-15T09:44:34.653Z,81.72
2023-01-15T09:47:08.695Z,81.97
2023-01-15T09:49:47.600Z,81.15
2023-01-15T09:52:18.914Z,81.18
2023-01-15T09:54:48.786Z,81.51
2023-01-15T09:57:15.949Z,81.22
2023-01-15T09:59:43.714Z,81.41
2023-01-15T10:02:18.411Z,81.58
2023-01-15T10:04:45.857Z,81.60
2023-01-15T10:07:18.533Z,81.13
2023-01-15T10:09:45.136Z,81.26
2023-01-15T10:12:37.256Z,80.98
2023-01-15T10:15:22.954Z,80.69
2023-01-15T10:17:50.381Z,80.99
2023-01-15T10:20:18.234Z,81.18
2023-01-15T10:22:48.954Z,80.70
2023-01-15T10:25:16.394Z,81.24
2023-01-15T10:27:45.543Z,81.42
2023-01-15T10:30:16.142Z,81.20
2023-01-15T10:33:01.520Z,81.96
2023-01-15T10:35:37.759Z,81.13
2023-01-15T10:38:20.269Z,81.40
2023-01-15T10:41:10.181Z,80.98
2023-01-15T10:44:09.270Z,81.16
2023-01-15T10:46:38.517Z,81.16
2023-01-15T10:49:13.583Z,81.32
2023-01-15T10:51:43.209Z,81.75
2023-01-15T10:54:15.187Z,81.37
2023-01-15T10:57:09.740Z,81.53
2023-01-15T10:59:40.846Z,81.79
2023-01-15T11:05:17.305Z,82.19
2023-01-15T11:10:41.541Z,81.57
2023-01-15T11:13:35.796Z,81.67
2023-01-15T11:16:21.158Z,81.44
2023-01-15T11:19:06.791Z,82.01
2023-01-15T11:21:33.638Z,81.93
2023-01-15T11:24:00.619Z,81.63
2023-01-15T11:26:28.411Z,81.11
2023-01-15T11:28:59.454Z,81.78
2023-01-15T11:31:38.761Z,81.45
2023-01-15T11:34:16.981Z,81.71
2023-01-15T11:36:43.536Z,81.07
2023-01-15T11:39:27.728Z,81.04
2023-01-15T11:42:19.792Z,81.66
2023-01-15T11:45:12.498Z,82.09
2023-01-15T11:48:00.627Z,81.21
2023-01-15T11:50:45.407Z,81.39
2023-01-15T11:53:19.616Z,80.64
2023-01-15T11:56:00.842Z,81.35
2023-01-15T11:58:29.017Z,81.23
2023-01-15T12:00:59.662Z,81.52
2023-01-15T12:03:27.449Z,81.21
2023-01-15T12:05:54.863Z,81.57
2023-01-15T12:08:34.249Z,81.14
2023-01-15T12:11:26.436Z,80.34
2023-01-15T12:14:09.101Z,80.23
2023-01-15T12:16:48.984Z,79.93
2023-01-15T12:19:18.766Z,79.91
2023-01-15T12:21:51.797Z,80.41
2023-01-15T12:24:25.036Z,79.57
2023-01-15T12:27:10.016Z,79.43
2023-01-15T12:29:42.683Z,79.60
2023-01-15T12:32:10.523Z,79.40
2023-01-15T12:34:39.888Z,78.78
2023-01-15T12:37:07.171Z,78.87
2023-01-15T12:39:40.224Z,78.88
2023-01-15T12:42:26.543Z,78.36
2023-01-15T12:45:07.909Z,77.74
2023-01-15T12:47:36.209Z,77.52
2023-01-15T12:50:14.948Z,77.10
2023-01-15T12:52:42.004Z,77.36
2023-01-15T12:55:16.161Z,77.09
2023-01-15T12:57:44.411Z,76.75
2023-01-15T13:00:13.653Z,76.53
2023-01-15T13:03:00.689Z,77.01
2023-01-15T13:05:28.926Z,76.68
2023-01-15T13:08:04.008Z,76.11
2023-01-15T13:10:34.593Z,76.20
2023-01-15T13:13:15.500Z,77.13
2023-01-15T13:16:00.848Z,76.64
2023-01-15T13:18:37.859Z,76.64
2023-01-15T13:21:07.152Z,75.75
2023-01-15T13:23:52.101Z,76.08
2023-01-15T13:26:38.231Z,75.02
2023-01-15T13:29:08.703Z,74.98
2023-01-15T13:31:54.120Z,75.63
2023-01-15T13:34:26.323Z,75.93
2023-01-15T13:36:53.313Z,75.04
2023-01-15T13:39:21.326Z,75.28
2023-01-15T13:42:07.102Z,75.28
2023-01-15T13:44:35.277Z,75.51
2023-01-15T13:47:02.820Z,75.57
2023-01-15T13:49:31.709Z,75.03
2023-01-15T13:52:04.226Z,76.58
2023-01-15T13:54:31.313Z,75.25
2023-01-15T13:57:16.719Z,75.61
2023-01-15T13:59:44.564Z,75.64
2023-01-15T14:02:23.658Z,75.93
2023-01-15T14:04:50.179Z,75.31
2023-01-15T14:07:18.415Z,75.67
2023-01-15T14:09:44.987Z,75.30
2023-01-15T14:12:14.250Z,74.22
2023-01-15T14:15:03.932Z,74.19
2023-01-15T14:17:49.027Z,73.43
2023-01-15T14:20:15.557Z,74.69
2023-01-15T14:22:47.977Z,74.71
2023-01-15T14:25:26.448Z,73.46
2023-01-15T14:28:13.220Z,73.57
2023-01-15T14:30:58.962Z,73.52
2023-01-15T14:33:45.836Z,74.16
2023-01-15T14:36:19.752Z,73.75
2023-01-15T14:38:47.709Z,73.75
2023-01-15T14:41:14.661Z,71.69
2023-01-15T14:43:42.114Z,70.32
2023-01-15T14:46:25.861Z,70.38
2023-01-15T14:48:52.440Z,70.30
2023-01-15T14:51:22.407Z,70.54
2023-01-15T14:53:49.816Z,71.88
2023-01-15T14:56:29.611Z,71.94
2023-01-15T14:58:57.485Z,71.35
2023-01-15T15:01:27.375Z,72.03
2023-01-15T15:03:54.579Z,70.80
2023-01-15T15:06:21.107Z,70.58
2023-01-15T15:08:47.740Z,70.87
2023-01-15T15:11:35.919Z,71.42
2023-01-15T15:14:02.425Z,70.98
2023-01-15T15:16:28.959Z,71.07
2023-01-15T15:19:05.754Z,70.58
2023-01-15T15:21:33.909Z,71.22
2023-01-15T15:24:04.088Z,71.36
2023-01-15T15:26:35.841Z,71.05
2023-01-15T15:29:02.319Z,71.12
2023-01-15T15:31:32.599Z,70.84
2023-01-15T15:33:59.247Z,70.81
2023-01-15T15:36:26.569Z,69.92
2023-01-15T15:39:00.267Z,70.16
2023-01-15T15:41:46.452Z,70.06
2023-01-15T15:44:35.709Z,70.15
2023-01-15T15:47:21.084Z,70.53
2023-01-15T15:49:47.639Z,70.63
2023-01-15T15:52:21.264Z,70.78
2023-01-15T15:54:56.985Z,70.45
2023-01-15T15:57:23.489Z,70.65
2023-01-15T15:59:51.233Z,72.05
2023-01-15T16:02:24.037Z,70.67
2023-01-15T16:04:51.400Z,70.96
2023-01-15T16:07:22.589Z,72.45
2023-01-15T16:09:49.692Z,72.25
2023-01-15T16:12:16.408Z,72.77
2023-01-15T16:14:43.035Z,72.71
2023-01-15T16:17:12.596Z,72.32
2023-01-15T16:19:39.372Z,71.62
2023-01-15T16:22:06.788Z,72.31
2023-01-15T16:24:33.381Z,73.55
2023-01-15T16:27:01.107Z,72.46
2023-01-15T16:29:31.212Z,73.12
2023-01-15T16:31:59.742Z,73.28
2023-01-15T16:34:26.278Z,72.54
2023-01-15T16:36:52.832Z,72.90
2023-01-15T16:39:39.750Z,72.58
2023-01-15T16:42:06.572Z,73.06
2023-01-15T16:44:49.885Z,73.23
2023-01-15T16:47:26.419Z,72.72
2023-01-15T16:49:53.276Z,73.74
2023-01-15T16:52:35.176Z,72.90
2023-01-15T16:55:01.705Z,73.07
2023-01-15T16:57:29.914Z,73.29
2023-01-15T16:59:57.611Z,73.63
2023-01-15T17:02:24.268Z,72.49
2023-01-15T17:04:51.904Z,72.69
2023-01-15T17:07:39.218Z,72.75
2023-01-15T17:10:06.765Z,72.72
2023-01-15T17:12:37.576Z,72.46
2023-01-15T17:15:16.390Z,73.26
2023-01-15T17:17:46.451Z,72.83
2023-01-15T17:20:13.865Z,73.49
2023-01-15T17:22:40.814Z,72.80
2023-01-15T17:25:22.497Z,73.26
2023-01-15T17:27:49.060Z,72.87
2023-01-15T17:30:15.955Z,73.27
2023-01-15T17:32:42.483Z,73.42
2023-01-15T17:35:32.270Z,73.77
2023-01-15T17:37:58.773Z,74.07
2023-01-15T17:40:25.296Z,74.25
2023-01-15T17:42:53.715Z,73.35
2023-01-15T17:45:20.300Z,73.29
2023-01-15T17:47:47.107Z,73.36
2023-01-15T17:50:14.545Z,72.71
2023-01-15T17:52:41.460Z,72.86
2023-01-15T17:55:28.527Z,73.00
2023-01-15T17:58:14.415Z,73.76
2023-01-15T18:00:59.611Z,73.82
2023-01-15T18:03:45.066Z,74.25
2023-01-15T18:06:13.888Z,72.94
2023-01-15T18:08:41.182Z,72.60
2023-01-15T18:11:07.714Z,73.75
2023-01-15T18:13:34.421Z,73.47
2023-01-15T18:16:01.040Z,73.80
2023-01-15T18:18:27.619Z,72.22
2023-01-15T18:21:01.672Z,73.43
2023-01-15T18:23:28.326Z,73.80
2023-01-15T18:25:54.855Z,73.42
2023-01-15T18:28:22.483Z,74.00
2023-01-15T18:30:49.011Z,73.44
2023-01-15T18:33:15.552Z,73.56
2023-01-15T18:35:42.105Z,72.55
2023-01-15T18:38:08.627Z,73.58
2023-01-15T18:40:35.219Z,73.37
2023-01-15T18:43:20.579Z,73.29
2023-01-15T18:46:06.448Z,72.88
2023-01-15T18:48:33.271Z,72.76
2023-01-15T18:51:06.434Z,73.49
2023-01-15T18:53:32.958Z,72.95
2023-01-15T18:56:03.452Z,73.50
2023-01-15T18:58:30.586Z,72.84
2023-01-15T19:06:47.756Z,73.58
2023-01-15T19:09:16.829Z,73.25
2023-01-15T19:11:46.499Z,73.22
2023-01-15T19:14:31.762Z,72.13
2023-01-15T19:17:16.922Z,73.61
2023-01-15T19:19:43.771Z,72.91
2023-01-15T19:22:29.710Z,72.33
2023-01-15T19:24:56.324Z,73.40
2023-01-15T19:27:22.966Z,72.63
2023-01-15T19:29:49.531Z,73.06
2023-01-15T19:32:16.329Z,73.47
2023-01-15T19:34:42.975Z,73.19
2023-01-15T19:37:09.538Z,73.16
2023-01-15T19:39:36.263Z,72.19
2023-01-15T19:42:21.734Z,71.83
2023-01-15T19:45:06.987Z,71.76
2023-01-15T19:47:53.278Z,72.16
2023-01-15T19:50:20.870Z,72.39
2023-01-15T19:52:48.447Z,71.44
2023-01-15T19:55:15.510Z,72.68
2023-01-15T19:57:43.169Z,71.81
2023-01-15T20:00:11.015Z,71.34
2023-01-15T20:02:37.750Z,71.12
2023-01-15T20:05:05.232Z,71.54
2023-01-15T20:07:31.921Z,71.85
2023-01-15T20:09:58.539Z,71.26
2023-01-15T20:12:43.729Z,71.29
2023-01-15T20:15:10.449Z,71.22
2023-01-15T20:17:37.067Z,70.78
2023-01-15T20:20:03.966Z,70.87
2023-01-15T20:22:31.222Z,70.92
2023-01-15T20:24:58.063Z,70.60
2023-01-15T20:27:24.702Z,70.45
2023-01-15T20:29:54.722Z,71.58
2023-01-15T20:32:21.275Z,70.77
2023-01-15T20:34:48.559Z,71.37
2023-01-15T20:37:15.204Z,70.75
2023-01-15T20:39:41.740Z,70.24
2023-01-15T20:42:27.908Z,70.80
2023-01-15T20:44:54.510Z,71.07
2023-01-15T20:47:43.554Z,71.53
2023-01-15T20:50:10.924Z,71.46
2023-01-15T20:52:38.092Z,71.47
2023-01-15T20:55:05.587Z,71.46
2023-01-15T20:57:35.679Z,71.11
2023-01-15T21:00:02.668Z,70.55
2023-01-15T21:02:29.314Z,70.53
2023-01-15T21:04:55.918Z,70.68
2023-01-15T21:07:23.676Z,70.34
2023-01-15T21:09:50.373Z,71.15
2023-01-15T21:12:17.381Z,70.54
2023-01-15T21:14:44.526Z,71.42
2023-01-15T21:17:11.450Z,71.54
2023-01-15T21:19:38.051Z,71.89
2023-01-15T21:22:04.623Z,71.73
2023-01-15T21:24:31.823Z,71.60
2023-01-15T21:26:58.385Z,71.64
2023-01-15T21:29:24.938Z,72.33
2023-01-15T21:31:51.610Z,72.24
2023-01-15T21:34:18.361Z,72.23
2023-01-15T21:36:44.969Z,72.51
2023-01-15T21:39:12.029Z,72.27
2023-01-15T21:41:57.460Z,72.25
2023-01-15T21:44:35.612Z,72.32
2023-01-15T21:47:03.255Z,72.32
2023-01-15T21:49:32.474Z,72.13
2023-01-15T21:51:59.792Z,72.13
2023-01-15T21:54:26.925Z,71.38
2023-01-15T21:56:54.029Z,71.68
2023-01-15T21:59:22.107Z,71.24
2023-01-15T22:01:49.697Z,71.21
2023-01-15T22:04:16.264Z,70.69
2023-01-15T22:06:42.817Z,70.57
2023-01-15T22:09:09.425Z,71.08
2023-01-15T22:11:43.843Z,71.11
2023-01-15T22:14:11.253Z,70.39
2023-01-15T22:16:37.901Z,70.87
2023-01-15T22:19:04.613Z,71.20
2023-01-15T22:21:31.274Z,71.53
2023-01-15T22:23:57.823Z,70.92
2023-01-15T22:26:25.954Z,70.90
2023-01-15T22:28:52.475Z,71.92
2023-01-15T22:31:19.119Z,71.64
2023-01-15T22:33:46.112Z,71.11
2023-01-15T22:36:14.179Z,70.58
2023-01-15T22:38:40.984Z,70.42
2023-01-15T22:41:07.644Z,70.70
2023-01-15T22:43:34.407Z,70.62
2023-01-15T22:46:11.040Z,69.70
2023-01-15T22:48:37.810Z,69.88
2023-01-15T22:51:04.839Z,69.78
2023-01-15T22:53:31.444Z,70.02
2023-01-15T22:55:58.426Z,69.53
2023-01-15T22:58:25.145Z,69.94
2023-01-15T23:00:55.430Z,69.75
2023-01-15T23:03:22.385Z,68.74
2023-01-15T23:05:49.121Z,68.46
2023-01-15T23:08:15.735Z,68.57
2023-01-15T23:10:44.563Z,68.86
2023-01-15T23:13:11.447Z,68.54
2023-01-15T23:15:38.089Z,68.49
2023-01-15T23:18:04.941Z,68.82
2023-01-15T23:20:31.543Z,69.15
2023-01-15T23:22:58.166Z,68.42
2023-01-15T23:25:24.959Z,67.91
2023-01-15T23:27:51.568Z,68.66
2023-01-15T23:30:18.321Z,68.70
2023-01-15T23:32:44.900Z,68.18
2023-01-15T23:35:11.475Z,68.14
2023-01-15T23:37:38.028Z,68.23
2023-01-15T23:40:05.296Z,68.71
2023-01-15T23:42:50.736Z,68.49
2023-01-15T23:45:36.138Z,67.99
2023-01-15T23:48:02.785Z,68.60
2023-01-15T23:50:29.335Z,68.17
2023-01-15T23:52:56.473Z,68.35
2023-01-15T23:55:23.075Z,68.29
2023-01-15T23:57:49.630Z,68.62
